Stolt Ami — 3EAZ5 — position and weather

sailwx.info

Track history (hours):
 
Tides and Currents Weather Stations Pressure Air Temp Water Temp Dewpoint Dewpoint Depression Visibility Wind Speed Wind Dir Waves Ship Positions

Stolt Ami

Last reported at 2016-Jun-24 17:06 UTC. Time now 2016-Jun-24 20:22 UTC.
Position N 41°33' E 004°48'.

Length 143 m; draft 9.1 m.

Type: Ship (hazmat cat B). MMSI: 371392514.

Date/timePositionNaut miles runAvg speedWind from/ knotsBaromVisibWave heightAir tempDewpointWater temp
2016-Jun-24 17:06N 41°33' E 004°48'3212.5
2016-Jun-24 14:33N 41°24' E 004°07'1313.1
2016-Jun-24 13:33N 41°23' E 003°49'1313.1
2016-Jun-24 12:33N 41°19' E 003°33'1312.6
2016-Jun-24 11:33N 41°16' E 003°16'1312.8
2016-Jun-24 10:33N 41°13' E 003°00'1312.8
2016-Jun-24 09:33N 41°10' E 002°43'1312.7
2016-Jun-24 08:33N 41°08' E 002°27'1110.9
2016-Jun-24 07:33N 41°11' E 002°13'10 0.5
2016-Jun-23 12:30N 41°20' E 002°09'0 0.0
2016-Jun-23 09:31N 41°20' E 002°09'0 0.0
2016-Jun-23 07:22N 41°20' E 002°09'3 1.0
2016-Jun-23 04:33N 41°18' E 002°12'0 0.0
2016-Jun-23 03:24N 41°18' E 002°12'0 0.0
2016-Jun-23 02:30N 41°19' E 002°12'0 0.0
2016-Jun-23 01:30N 41°19' E 002°12'0 0.1
2016-Jun-23 00:21N 41°18' E 002°12'4 5.0
2016-Jun-22 23:31N 41°15' E 002°10'1111.8
2016-Jun-22 22:33N 41°06' E 002°00'1212.4
2016-Jun-22 21:33N 41°03' E 001°44'1312.8
2016-Jun-22 20:33N 41°01' E 001°28'1211.8
2016-Jun-22 19:33N 41°04' E 001°13'2 1.5
2016-Jun-22 18:05N 41°06' E 001°14'0 0.0
2016-Jun-22 17:29N 41°06' E 001°14'0 0.0
2016-Jun-22 16:29N 41°06' E 001°14'0 0.0
2016-Jun-22 12:29N 41°06' E 001°14'0 0.0
2016-Jun-22 05:33N 41°06' E 001°14'3 2.9
2016-Jun-22 04:33N 41°04' E 001°12'5 5.1
2016-Jun-22 03:33N 40°60' E 001°17'10 9.7
2016-Jun-22 02:32N 40°51' E 001°24'1212.3
2016-Jun-22 01:33N 40°40' E 001°30'1312.6
2016-Jun-22 00:33N 40°29' E 001°23'1312.4
2016-Jun-21 23:33N 40°17' E 001°20'1212.1
2016-Jun-21 22:33N 40°06' E 001°12'1212.2
2016-Jun-21 21:33N 39°55' E 001°06'13912.6
2016-Jun-21 10:32N 37°52' W 000°17'1212.8
2016-Jun-21 09:34N 37°41' W 000°25'1313.0
2016-Jun-21 08:33N 37°30' W 000°35'1312.7
2016-Jun-21 07:33N 37°22' W 000°47'8412.0
2016-Jun-21 00:33N 36°26' W 002°05'1212.3
2016-Jun-20 23:34N 36°20' W 002°19'1312.5
2016-Jun-20 22:34N 36°18' W 002°34'1312.6
2016-Jun-20 21:30N 36°16' W 002°51'1312.5
2016-Jun-20 20:29N 36°15' W 003°06'10713.5
2016-Jun-20 12:33N 35°59' W 005°17'1110.8
2016-Jun-20 11:33N 36°09' W 005°24'2 1.6
2016-Jun-20 10:33N 36°10' W 005°24'0 0.1
2016-Jun-20 09:33N 36°10' W 005°24'0 0.0
2016-Jun-20 08:33N 36°10' W 005°24'0 0.1
2016-Jun-20 07:33N 36°10' W 005°24'2 2.3
2016-Jun-20 06:33N 36°08' W 005°24'7 6.6
2016-Jun-20 05:33N 36°03' W 005°18'6 6.2
2016-Jun-20 04:33N 35°59' W 005°24'9612.0
2016-Jun-19 20:33N 35°52' W 007°22'1212.4
2016-Jun-19 19:33N 35°51' W 007°38'1312.8
2016-Jun-19 18:33N 35°50' W 007°53'1312.6
2016-Jun-19 17:33N 35°49' W 008°09'1312.5
2016-Jun-19 16:33N 35°48' W 008°24'1412.6
2016-Jun-19 15:27N 35°47' W 008°41'3612.5
2016-Jun-19 12:33N 35°44' W 009°26'2712.5
2016-Jun-19 10:26N 35°42' W 009°58'1112.3
2016-Jun-19 09:33N 35°41' W 010°11'  
2016-Jun-17 00:32N 35°55' W 024°16'1312.6
2016-Jun-16 23:30N 35°55' W 024°33'1212.4
2016-Jun-16 22:33N 35°56' W 024°47'1212.4
2016-Jun-16 21:33N 35°56' W 025°02'1312.8
2016-Jun-16 20:33N 35°56' W 025°18'1312.9
2016-Jun-16 19:33N 35°57' W 025°34'1312.8
2016-Jun-16 18:33N 35°57' W 025°50'1313.0
2016-Jun-16 17:33N 35°57' W 026°06'7113.1
2016-Jun-16 12:09N 35°58' W 027°33'912.6
2016-Jun-16 11:28N 35°58' W 027°44'6412.6
2016-Jun-16 06:21N 35°59' W 029°03'1012.7
2016-Jun-16 05:33N 35°60' W 029°16'1312.8
2016-Jun-16 04:34N 35°59' W 029°32'1912.6
2016-Jun-16 03:04N 36°00' W 029°55'  
Track history (hours):
 
Tides and Currents Weather Stations Pressure Air Temp Water Temp Dewpoint Dewpoint Depression Visibility Wind Speed Wind Dir Waves Ship Positions

Stolt Ami

Last reported at 2016-Jun-24 17:06 UTC. Time now 2016-Jun-24 20:22 UTC.
Position N 41°33' E 004°48'.

Length 143 m; draft 9.1 m.

Type: Ship (hazmat cat B). MMSI: 371392514.

Date/timePositionNaut miles runAvg speedWind from/ knotsBaromVisibWave heightAir tempDewpointWater temp
2016-Jun-24 17:06N 41°33' E 004°48'3212.5
2016-Jun-24 14:33N 41°24' E 004°07'1313.1
2016-Jun-24 13:33N 41°23' E 003°49'1313.1
2016-Jun-24 12:33N 41°19' E 003°33'1312.6
2016-Jun-24 11:33N 41°16' E 003°16'1312.8
2016-Jun-24 10:33N 41°13' E 003°00'1312.8
2016-Jun-24 09:33N 41°10' E 002°43'1312.7
2016-Jun-24 08:33N 41°08' E 002°27'1110.9
2016-Jun-24 07:33N 41°11' E 002°13'10 0.5
2016-Jun-23 12:30N 41°20' E 002°09'0 0.0
2016-Jun-23 09:31N 41°20' E 002°09'0 0.0
2016-Jun-23 07:22N 41°20' E 002°09'3 1.0
2016-Jun-23 04:33N 41°18' E 002°12'0 0.0
2016-Jun-23 03:24N 41°18' E 002°12'0 0.0
2016-Jun-23 02:30N 41°19' E 002°12'0 0.0
2016-Jun-23 01:30N 41°19' E 002°12'0 0.1
2016-Jun-23 00:21N 41°18' E 002°12'4 5.0
2016-Jun-22 23:31N 41°15' E 002°10'1111.8
2016-Jun-22 22:33N 41°06' E 002°00'1212.4
2016-Jun-22 21:33N 41°03' E 001°44'1312.8
2016-Jun-22 20:33N 41°01' E 001°28'1211.8
2016-Jun-22 19:33N 41°04' E 001°13'2 1.5
2016-Jun-22 18:05N 41°06' E 001°14'0 0.0
2016-Jun-22 17:29N 41°06' E 001°14'0 0.0
2016-Jun-22 16:29N 41°06' E 001°14'0 0.0
2016-Jun-22 12:29N 41°06' E 001°14'0 0.0
2016-Jun-22 05:33N 41°06' E 001°14'3 2.9
2016-Jun-22 04:33N 41°04' E 001°12'5 5.1
2016-Jun-22 03:33N 40°60' E 001°17'10 9.7
2016-Jun-22 02:32N 40°51' E 001°24'1212.3
2016-Jun-22 01:33N 40°40' E 001°30'1312.6
2016-Jun-22 00:33N 40°29' E 001°23'1312.4
2016-Jun-21 23:33N 40°17' E 001°20'1212.1
2016-Jun-21 22:33N 40°06' E 001°12'1212.2
2016-Jun-21 21:33N 39°55' E 001°06'13912.6
2016-Jun-21 10:32N 37°52' W 000°17'1212.8
2016-Jun-21 09:34N 37°41' W 000°25'1313.0
2016-Jun-21 08:33N 37°30' W 000°35'1312.7
2016-Jun-21 07:33N 37°22' W 000°47'8412.0
2016-Jun-21 00:33N 36°26' W 002°05'1212.3
2016-Jun-20 23:34N 36°20' W 002°19'1312.5
2016-Jun-20 22:34N 36°18' W 002°34'1312.6
2016-Jun-20 21:30N 36°16' W 002°51'1312.5
2016-Jun-20 20:29N 36°15' W 003°06'10713.5
2016-Jun-20 12:33N 35°59' W 005°17'1110.8
2016-Jun-20 11:33N 36°09' W 005°24'2 1.6
2016-Jun-20 10:33N 36°10' W 005°24'0 0.1
2016-Jun-20 09:33N 36°10' W 005°24'0 0.0
2016-Jun-20 08:33N 36°10' W 005°24'0 0.1
2016-Jun-20 07:33N 36°10' W 005°24'2 2.3
2016-Jun-20 06:33N 36°08' W 005°24'7 6.6
2016-Jun-20 05:33N 36°03' W 005°18'6 6.2
2016-Jun-20 04:33N 35°59' W 005°24'9612.0
2016-Jun-19 20:33N 35°52' W 007°22'1212.4
2016-Jun-19 19:33N 35°51' W 007°38'1312.8
2016-Jun-19 18:33N 35°50' W 007°53'1312.6
2016-Jun-19 17:33N 35°49' W 008°09'1312.5
2016-Jun-19 16:33N 35°48' W 008°24'1412.6
2016-Jun-19 15:27N 35°47' W 008°41'3612.5
2016-Jun-19 12:33N 35°44' W 009°26'2712.5
2016-Jun-19 10:26N 35°42' W 009°58'1112.3
2016-Jun-19 09:33N 35°41' W 010°11'  
2016-Jun-17 00:32N 35°55' W 024°16'1312.6
2016-Jun-16 23:30N 35°55' W 024°33'1212.4
2016-Jun-16 22:33N 35°56' W 024°47'1212.4
2016-Jun-16 21:33N 35°56' W 025°02'1312.8
2016-Jun-16 20:33N 35°56' W 025°18'1312.9
2016-Jun-16 19:33N 35°57' W 025°34'1312.8
2016-Jun-16 18:33N 35°57' W 025°50'1313.0
2016-Jun-16 17:33N 35°57' W 026°06'7113.1
2016-Jun-16 12:09N 35°58' W 027°33'912.6
2016-Jun-16 11:28N 35°58' W 027°44'6412.6
2016-Jun-16 06:21N 35°59' W 029°03'1012.7
2016-Jun-16 05:33N 35°60' W 029°16'1312.8
2016-Jun-16 04:34N 35°59' W 029°32'1912.6
2016-Jun-16 03:04N 36°00' W 029°55'  

Dump ship's entire track history